createdAt,value
2023-04-18T00:00:14.159Z,11.82
2023-04-18T00:02:41.748Z,16.08
2023-04-18T00:05:09.475Z,21.45
2023-04-18T00:07:36.798Z,17.52
2023-04-18T00:10:06.094Z,17.48
2023-04-18T00:12:34.663Z,14.18
2023-04-18T00:15:03.074Z,14.65
2023-04-18T00:17:32.157Z,16.55
2023-04-18T00:20:02.624Z,17.38
2023-04-18T00:22:29.969Z,14.02
2023-04-18T00:24:57.420Z,14.43
2023-04-18T00:27:24.682Z,17.40
2023-04-18T00:29:51.935Z,18.35
2023-04-18T00:32:19.984Z,17.90
2023-04-18T00:34:47.148Z,13.75
2023-04-18T00:37:14.312Z,19.73
2023-04-18T00:39:41.627Z,20.77
2023-04-18T00:42:09.017Z,14.65
2023-04-18T00:44:36.201Z,18.75
2023-04-18T00:47:03.472Z,15.82
2023-04-18T00:49:30.897Z,17.63
2023-04-18T00:51:59.334Z,18.70
2023-04-18T00:54:27.621Z,16.85
2023-04-18T00:56:54.954Z,18.50
2023-04-18T00:59:22.581Z,16.30
2023-04-18T01:01:54.161Z,22.25
2023-04-18T01:04:21.707Z,20.42
2023-04-18T01:06:49.370Z,20.75
2023-04-18T01:09:17.249Z,19.10
2023-04-18T01:11:44.620Z,24.17
2023-04-18T01:14:11.920Z,18.85
2023-04-18T01:16:39.878Z,17.60
2023-04-18T01:19:07.343Z,18.08
2023-04-18T01:21:37.588Z,20.17
2023-04-18T01:24:13.134Z,27.27
2023-04-18T01:26:41.526Z,22.00
2023-04-18T01:29:09.188Z,25.05
2023-04-18T01:31:48.788Z,22.02
2023-04-18T01:34:18.099Z,23.17
2023-04-18T01:36:46.259Z,24.08
2023-04-18T01:39:14.354Z,29.75
2023-04-18T01:41:42.617Z,22.52
2023-04-18T01:44:10.079Z,25.33
2023-04-18T01:46:37.344Z,26.92
2023-04-18T01:49:05.482Z,29.50
2023-04-18T01:51:32.843Z,29.80
2023-04-18T01:54:00.134Z,29.42
2023-04-18T01:56:27.301Z,28.65
2023-04-18T01:58:54.945Z,25.95
2023-04-18T02:01:22.175Z,27.67
2023-04-18T02:03:49.610Z,26.02
2023-04-18T02:06:16.959Z,30.50
2023-04-18T02:08:44.404Z,33.85
2023-04-18T02:11:11.877Z,32.63
2023-04-18T02:13:39.021Z,35.85
2023-04-18T02:16:17.374Z,30.38
2023-04-18T02:18:49.739Z,32.05
2023-04-18T02:21:17.231Z,34.70
2023-04-18T02:23:44.669Z,37.72
2023-04-18T02:26:11.963Z,58.75
2023-04-18T02:28:39.452Z,38.13
2023-04-18T02:31:14.733Z,35.08
2023-04-18T02:33:43.528Z,31.58
2023-04-18T02:36:12.357Z,38.10
2023-04-18T02:38:39.654Z,40.35
2023-04-18T02:41:07.115Z,40.55
2023-04-18T02:43:34.440Z,40.33
2023-04-18T02:46:02.219Z,38.67
2023-04-18T02:48:29.477Z,41.13
2023-04-18T02:51:05.737Z,43.25
2023-04-18T02:53:33.543Z,46.75
2023-04-18T02:56:01.211Z,41.50
2023-04-18T02:58:28.861Z,41.42
2023-04-18T03:00:56.940Z,44.33
2023-04-18T03:03:24.287Z,45.47
2023-04-18T03:05:54.185Z,43.30
2023-04-18T03:08:21.638Z,48.75
2023-04-18T03:10:49.299Z,45.90
2023-04-18T03:13:17.328Z,46.85
2023-04-18T03:15:45.811Z,45.75
2023-04-18T03:18:13.048Z,42.50
2023-04-18T03:20:41.277Z,52.65
2023-04-18T03:23:08.848Z,49.47
2023-04-18T03:25:36.152Z,52.85
2023-04-18T03:28:03.427Z,54.78
2023-04-18T03:30:30.778Z,51.85
2023-04-18T03:32:59.002Z,51.75
2023-04-18T03:35:26.369Z,51.50
2023-04-18T03:37:53.733Z,56.00
2023-04-18T03:40:21.823Z,52.83
2023-04-18T03:42:50.304Z,55.72
2023-04-18T03:45:17.664Z,53.05
2023-04-18T03:47:45.056Z,51.78
2023-04-18T03:50:12.346Z,50.28
2023-04-18T03:52:39.662Z,56.42
2023-04-18T03:55:11.950Z,55.33
2023-04-18T03:57:40.833Z,58.33
2023-04-18T04:00:09.395Z,51.45
2023-04-18T04:02:37.370Z,48.35
2023-04-18T04:05:05.529Z,60.42
2023-04-18T04:07:34.425Z,50.42
2023-04-18T04:10:02.848Z,51.40
2023-04-18T04:12:31.498Z,58.78
2023-04-18T04:14:58.878Z,57.63
2023-04-18T04:17:26.428Z,73.70
2023-04-18T04:19:56.119Z,56.60
2023-04-18T04:22:25.233Z,60.25
2023-04-18T04:24:52.598Z,52.97
2023-04-18T04:27:24.913Z,53.92
2023-04-18T04:30:26.653Z,53.47
2023-04-18T04:32:54.913Z,48.35
2023-04-18T04:35:22.470Z,59.08
2023-04-18T04:37:49.645Z,52.63
2023-04-18T04:40:18.028Z,57.58
2023-04-18T04:42:46.148Z,61.47
2023-04-18T04:45:13.557Z,55.28
2023-04-18T04:47:40.862Z,52.28
2023-04-18T04:50:15.560Z,48.33
2023-04-18T04:52:45.840Z,54.00
2023-04-18T04:55:13.277Z,47.58
2023-04-18T04:57:40.663Z,50.83
2023-04-18T05:00:09.460Z,53.00
2023-04-18T05:02:36.985Z,48.97
2023-04-18T05:05:04.628Z,43.08
2023-04-18T05:07:34.389Z,52.05
2023-04-18T05:10:01.704Z,52.90
2023-04-18T05:12:28.917Z,50.03
2023-04-18T05:14:56.377Z,41.47
2023-04-18T05:17:26.943Z,47.85
2023-04-18T05:19:54.301Z,42.67
2023-04-18T05:22:21.936Z,41.42
2023-04-18T05:24:49.234Z,41.13
2023-04-18T05:27:18.162Z,37.78
2023-04-18T05:29:58.431Z,40.55
2023-04-18T05:32:26.282Z,42.53
2023-04-18T05:34:57.318Z,44.88
2023-04-18T05:37:24.817Z,43.80
2023-04-18T05:39:51.958Z,38.63
2023-04-18T05:42:22.244Z,40.22
2023-04-18T05:44:51.672Z,39.67
2023-04-18T05:47:19.159Z,37.45
2023-04-18T05:49:46.400Z,48.15
2023-04-18T05:52:13.734Z,35.13
2023-04-18T05:54:41.625Z,34.28
2023-04-18T05:57:09.125Z,74.18
2023-04-18T05:59:38.691Z,33.75
2023-04-18T06:02:17.209Z,27.80
2023-04-18T06:04:45.588Z,30.23
2023-04-18T06:07:23.777Z,27.70
2023-04-18T06:09:51.571Z,25.15
2023-04-18T06:12:19.113Z,24.05
2023-04-18T06:14:46.375Z,41.30
2023-04-18T06:17:17.013Z,20.45
2023-04-18T06:19:44.222Z,30.85
2023-04-18T06:22:11.350Z,26.52
2023-04-18T06:24:38.809Z,31.67
2023-04-18T06:27:06.423Z,24.55
2023-04-18T06:29:35.607Z,31.30
2023-04-18T06:32:03.494Z,22.10
2023-04-18T06:34:30.655Z,22.67
2023-04-18T06:36:57.954Z,20.83
2023-04-18T06:39:25.328Z,25.38
2023-04-18T06:42:01.535Z,20.45
2023-04-18T06:44:28.822Z,20.42
2023-04-18T06:46:59.919Z,21.45
2023-04-18T06:49:49.589Z,24.08
2023-04-18T06:52:19.867Z,22.52
2023-04-18T06:54:54.946Z,21.90
2023-04-18T06:57:22.290Z,20.02
2023-04-18T06:59:49.522Z,21.35
2023-04-18T07:02:16.687Z,18.92
2023-04-18T07:04:43.846Z,18.05
2023-04-18T07:07:13.540Z,16.70
2023-04-18T07:09:40.960Z,21.70
2023-04-18T07:12:08.356Z,25.83
2023-04-18T07:14:35.516Z,18.80
2023-04-18T07:17:02.928Z,16.23
2023-04-18T07:19:30.097Z,17.70
2023-04-18T07:21:57.350Z,15.63
2023-04-18T07:24:24.570Z,16.80
2023-04-18T07:26:54.785Z,17.58
2023-04-18T07:29:26.211Z,16.83
2023-04-18T07:31:53.594Z,17.00
2023-04-18T07:34:22.329Z,17.60
2023-04-18T07:36:52.276Z,15.65
2023-04-18T07:39:19.470Z,13.90
2023-04-18T07:41:48.802Z,14.85
2023-04-18T07:44:18.613Z,13.55
2023-04-18T07:46:58.031Z,16.33
2023-04-18T07:49:26.622Z,15.15
2023-04-18T07:51:54.118Z,8.85
2023-04-18T07:54:47.125Z,10.73
2023-04-18T07:57:23.533Z,9.98
2023-04-18T07:59:54.070Z,12.90
2023-04-18T08:02:27.346Z,10.13
2023-04-18T08:04:57.398Z,12.13
2023-04-18T08:07:37.055Z,7.45
2023-04-18T08:10:27.219Z,12.85
2023-04-18T08:12:54.720Z,8.05
2023-04-18T08:15:32.983Z,10.13
2023-04-18T08:18:01.322Z,6.70
2023-04-18T08:23:24.665Z,7.38
2023-04-18T08:26:45.092Z,5.43
2023-04-18T08:29:20.781Z,5.88
2023-04-18T08:31:48.426Z,9.88
2023-04-18T08:34:15.827Z,6.28
2023-04-18T08:36:42.993Z,7.55
2023-04-18T08:39:23.676Z,9.85
2023-04-18T08:42:13.574Z,5.90
2023-04-18T08:44:41.844Z,5.47
2023-04-18T08:49:52.444Z,7.35
2023-04-18T08:52:40.537Z,9.07
2023-04-18T08:55:13.295Z,10.05
2023-04-18T08:57:40.736Z,6.30
2023-04-18T09:00:19.161Z,7.53
2023-04-18T09:02:55.355Z,7.75
2023-04-18T09:05:24.609Z,5.53
2023-04-18T09:08:52.173Z,8.20
2023-04-18T09:11:34.754Z,7.68
2023-04-18T09:14:38.077Z,7.93
2023-04-18T09:17:06.754Z,7.93
2023-04-18T09:19:34.267Z,6.55
2023-04-18T09:22:04.760Z,8.80
2023-04-18T09:24:32.382Z,9.05
2023-04-18T09:27:00.360Z,10.85
2023-04-18T09:29:49.717Z,10.88
2023-04-18T09:35:26.896Z,19.77
2023-04-18T09:37:54.303Z,18.50
2023-04-18T09:40:22.104Z,9.75
2023-04-18T09:43:01.333Z,9.77
2023-04-18T09:45:30.133Z,7.35
2023-04-18T09:47:58.808Z,14.55
2023-04-18T09:50:26.327Z,8.32
2023-04-18T09:52:56.293Z,7.82
2023-04-18T09:55:23.782Z,7.53
2023-04-18T09:57:53.470Z,8.88
2023-04-18T10:00:25.107Z,31.60
2023-04-18T10:06:48.268Z,7.95
2023-04-18T10:09:16.535Z,10.68
2023-04-18T10:11:51.372Z,9.75
2023-04-18T10:14:38.492Z,6.35
2023-04-18T10:17:06.617Z,10.63
2023-04-18T10:19:33.962Z,6.95
2023-04-18T10:22:02.212Z,7.82
2023-04-18T10:24:49.932Z,9.13
2023-04-18T10:27:18.155Z,6.68
2023-04-18T10:29:50.955Z,7.40
2023-04-18T10:32:27.383Z,9.05
2023-04-18T10:34:54.904Z,6.53
2023-04-18T10:37:22.296Z,10.13
2023-04-18T10:39:52.969Z,9.07
2023-04-18T10:42:40.076Z,7.80
2023-04-18T10:45:32.694Z,8.68
2023-04-18T10:48:32.886Z,5.85
2023-04-18T10:51:20.884Z,8.07
2023-04-18T10:53:58.164Z,5.50
2023-04-18T10:56:26.461Z,4.65
2023-04-18T10:58:56.856Z,9.20
2023-04-18T11:02:23.494Z,6.88
2023-04-18T11:04:51.717Z,5.15
2023-04-18T11:07:32.284Z,7.28
2023-04-18T11:09:59.542Z,6.05
2023-04-18T11:12:31.658Z,4.72
2023-04-18T11:14:59.345Z,4.70
2023-04-18T11:17:33.860Z,4.07
2023-04-18T11:20:17.643Z,7.93
2023-04-18T11:23:01.115Z,7.65
2023-04-18T11:25:35.777Z,8.00
2023-04-18T11:28:07.133Z,24.33
2023-04-18T11:30:39.179Z,7.45
2023-04-18T11:33:11.955Z,5.68
2023-04-18T11:35:40.850Z,11.32
2023-04-18T11:38:14.405Z,5.75
2023-04-18T11:40:51.431Z,4.50
2023-04-18T11:43:24.206Z,6.03
2023-04-18T11:46:00.018Z,10.35
2023-04-18T11:48:41.996Z,6.53
2023-04-18T11:51:30.526Z,6.20
2023-04-18T11:53:57.846Z,8.52
2023-04-18T11:56:25.904Z,7.55
2023-04-18T11:58:53.418Z,7.10
2023-04-18T12:01:25.738Z,8.07
2023-04-18T12:04:07.379Z,9.85
2023-04-18T12:06:52.797Z,8.52
2023-04-18T12:09:22.778Z,8.47
2023-04-18T12:12:01.118Z,14.13
2023-04-18T12:14:28.807Z,7.00
2023-04-18T12:16:59.597Z,10.13
2023-04-18T12:19:28.471Z,8.20
2023-04-18T12:21:57.130Z,9.75
2023-04-18T12:24:25.477Z,7.97
2023-04-18T12:26:53.551Z,12.02
2023-04-18T12:29:20.769Z,8.25
2023-04-18T12:31:48.279Z,9.23
2023-04-18T12:34:15.876Z,10.25
2023-04-18T12:36:43.649Z,7.50
2023-04-18T12:39:10.949Z,15.65
2023-04-18T12:41:38.357Z,11.65
2023-04-18T12:44:06.878Z,9.18
2023-04-18T12:46:34.613Z,9.90
2023-04-18T12:49:02.287Z,10.07
2023-04-18T12:51:29.612Z,8.40
2023-04-18T12:53:57.910Z,11.02
2023-04-18T12:56:25.071Z,10.00
2023-04-18T12:58:52.793Z,7.45
2023-04-18T13:01:20.342Z,9.00
2023-04-18T13:03:56.772Z,20.15
2023-04-18T13:06:32.310Z,10.77
2023-04-18T13:08:59.595Z,9.15
2023-04-18T13:11:28.801Z,30.92
2023-04-18T13:13:56.000Z,10.18
2023-04-18T13:16:23.457Z,12.07
2023-04-18T13:18:50.819Z,7.13
2023-04-18T13:21:18.958Z,8.63
2023-04-18T13:23:46.842Z,8.88
2023-04-18T13:26:15.176Z,8.55
2023-04-18T13:28:42.542Z,16.20
2023-04-18T13:31:09.777Z,13.23
2023-04-18T13:33:36.904Z,10.57
2023-04-18T13:36:04.260Z,11.32
2023-04-18T13:38:31.917Z,8.55
2023-04-18T13:41:11.383Z,7.00
2023-04-18T13:43:39.873Z,8.07
2023-04-18T13:46:07.089Z,10.73
2023-04-18T13:48:34.363Z,11.50
2023-04-18T13:51:02.915Z,9.63
2023-04-18T13:53:31.261Z,11.38
2023-04-18T13:55:58.904Z,11.13
2023-04-18T13:58:26.177Z,9.55
2023-04-18T14:00:55.378Z,12.30
2023-04-18T14:03:23.278Z,9.40
2023-04-18T14:05:50.673Z,8.68
2023-04-18T14:08:17.975Z,9.98
2023-04-18T14:10:45.121Z,11.13
2023-04-18T14:13:12.335Z,13.38
2023-04-18T14:15:42.201Z,6.82
2023-04-18T14:18:09.529Z,19.33
2023-04-18T14:20:37.325Z,9.95
2023-04-18T14:23:04.759Z,9.35
2023-04-18T14:25:32.134Z,9.82
2023-04-18T14:28:13.597Z,10.52
2023-04-18T14:30:41.225Z,6.90
2023-04-18T14:33:10.031Z,6.35
2023-04-18T14:35:40.562Z,9.90
2023-04-18T14:38:07.992Z,5.38
2023-04-18T14:40:35.603Z,6.40
2023-04-18T14:43:03.757Z,11.40
2023-04-18T14:45:34.809Z,12.75
2023-04-18T14:48:04.593Z,11.85
2023-04-18T14:50:31.995Z,9.15
2023-04-18T14:52:59.904Z,8.93
2023-04-18T14:55:30.025Z,12.48
2023-04-18T14:57:57.266Z,8.77
2023-04-18T15:00:24.458Z,16.00
2023-04-18T15:02:51.919Z,9.90
2023-04-18T15:05:20.761Z,10.40
2023-04-18T15:07:48.088Z,8.45
2023-04-18T15:10:15.544Z,8.40
2023-04-18T15:12:43.002Z,11.68
2023-04-18T15:15:10.914Z,9.35
2023-04-18T15:17:39.414Z,10.27
2023-04-18T15:20:09.200Z,12.80
2023-04-18T15:22:37.270Z,12.38
2023-04-18T15:25:05.806Z,12.38
2023-04-18T15:27:33.155Z,11.75
2023-04-18T15:30:00.754Z,10.43
2023-04-18T15:32:28.135Z,7.03
2023-04-18T15:34:55.783Z,9.65
2023-04-18T15:37:23.821Z,8.60
2023-04-18T15:39:51.797Z,9.88
2023-04-18T15:42:22.262Z,8.18
2023-04-18T15:44:50.287Z,9.95
2023-04-18T15:47:17.385Z,7.40
2023-04-18T15:49:46.441Z,15.05
2023-04-18T15:52:16.175Z,7.05
2023-04-18T15:54:44.144Z,6.50
2023-04-18T15:57:12.087Z,7.70
2023-04-18T15:59:48.666Z,9.45
2023-04-18T16:02:15.928Z,10.07
2023-04-18T16:04:46.165Z,7.15
2023-04-18T16:07:13.728Z,4.50
2023-04-18T16:09:41.206Z,4.38
2023-04-18T16:12:09.461Z,4.03
2023-04-18T16:14:36.742Z,4.60
2023-04-18T16:17:04.020Z,3.42
2023-04-18T16:19:38.626Z,5.55
2023-04-18T16:22:07.321Z,9.82
2023-04-18T16:24:34.656Z,7.80
2023-04-18T16:27:02.033Z,4.28
2023-04-18T16:29:29.581Z,3.85
2023-04-18T16:31:56.986Z,4.85
2023-04-18T16:34:24.505Z,7.03
2023-04-18T16:36:55.595Z,6.28
2023-04-18T16:39:23.474Z,4.15
2023-04-18T16:41:51.519Z,10.20
2023-04-18T16:44:19.642Z,8.23
2023-04-18T16:46:48.585Z,3.60
2023-04-18T16:49:16.424Z,3.70
2023-04-18T16:51:46.789Z,5.72
2023-04-18T16:54:14.671Z,3.88
2023-04-18T16:56:44.988Z,6.03
2023-04-18T16:59:12.456Z,4.75
2023-04-18T17:01:40.319Z,3.53
2023-04-18T17:04:08.484Z,9.20
2023-04-18T17:06:40.868Z,16.90
2023-04-18T17:09:09.394Z,7.35
2023-04-18T17:11:39.747Z,5.65
2023-04-18T17:14:21.709Z,6.78
2023-04-18T17:16:50.665Z,4.95
2023-04-18T17:19:19.441Z,4.97
2023-04-18T17:21:47.018Z,6.68
2023-04-18T17:24:14.549Z,9.15
2023-04-18T17:26:42.115Z,9.88
2023-04-18T17:29:09.626Z,4.88
2023-04-18T17:31:37.162Z,3.85
2023-04-18T17:34:04.491Z,3.45
2023-04-18T17:36:32.038Z,15.77
2023-04-18T17:39:06.806Z,7.25
2023-04-18T17:41:41.406Z,5.28
2023-04-18T17:44:13.932Z,6.95
2023-04-18T17:46:41.443Z,6.43
2023-04-18T17:49:09.260Z,4.35
2023-04-18T17:51:41.192Z,10.43
2023-04-18T17:54:13.786Z,5.70
2023-04-18T17:56:41.330Z,7.22
2023-04-18T17:59:10.226Z,5.88
2023-04-18T18:01:37.996Z,4.25
2023-04-18T18:04:05.543Z,5.05
2023-04-18T18:06:32.716Z,4.13
2023-04-18T18:08:59.930Z,9.60
2023-04-18T18:11:36.381Z,3.15
2023-04-18T18:14:04.049Z,5.28
2023-04-18T18:16:31.385Z,4.20
2023-04-18T18:18:59.182Z,4.35
2023-04-18T18:21:28.752Z,3.22
2023-04-18T18:23:56.136Z,23.75
2023-04-18T18:26:24.301Z,5.85
2023-04-18T18:28:54.426Z,12.75
2023-04-18T18:31:25.107Z,4.75
2023-04-18T18:33:53.017Z,7.20
2023-04-18T18:36:20.529Z,7.45
2023-04-18T18:38:47.646Z,11.13
2023-04-18T18:41:15.409Z,7.18
2023-04-18T18:43:42.612Z,7.22
2023-04-18T18:46:09.967Z,14.95
2023-04-18T18:48:39.618Z,7.70
2023-04-18T18:51:06.940Z,6.57
2023-04-18T18:53:34.267Z,4.72
2023-04-18T18:56:02.555Z,5.97
2023-04-18T18:58:30.026Z,8.18
2023-04-18T19:00:57.853Z,10.35
2023-04-18T19:03:26.122Z,5.63
2023-04-18T19:05:55.199Z,9.95
2023-04-18T19:08:22.529Z,4.32
2023-04-18T19:10:51.095Z,7.43
2023-04-18T19:13:22.922Z,6.60
2023-04-18T19:15:53.232Z,6.95
2023-04-18T19:18:21.733Z,9.07
2023-04-18T19:20:50.860Z,5.60
2023-04-18T19:23:19.706Z,9.00
2023-04-18T19:25:47.757Z,6.88
2023-04-18T19:28:15.930Z,5.43
2023-04-18T19:30:43.579Z,6.15
2023-04-18T19:33:11.194Z,4.95
2023-04-18T19:35:38.714Z,7.72
2023-04-18T19:38:06.468Z,4.30
2023-04-18T19:40:34.037Z,7.30
2023-04-18T19:43:01.294Z,6.55
2023-04-18T19:45:33.266Z,6.30
2023-04-18T19:48:01.038Z,6.38
2023-04-18T19:50:28.790Z,8.43
2023-04-18T19:52:56.471Z,6.35
2023-04-18T19:55:24.040Z,5.70
2023-04-18T19:57:57.639Z,8.45
2023-04-18T20:00:25.541Z,4.03
2023-04-18T20:02:53.821Z,8.57
2023-04-18T20:05:21.584Z,5.25
2023-04-18T20:07:49.105Z,4.85
2023-04-18T20:10:19.782Z,6.45
2023-04-18T20:12:48.856Z,6.28
2023-04-18T20:15:17.368Z,8.13
2023-04-18T20:17:44.779Z,9.57
2023-04-18T20:20:12.861Z,4.53
2023-04-18T20:22:42.122Z,3.92
2023-04-18T20:25:09.577Z,4.57
2023-04-18T20:27:36.813Z,6.28
2023-04-18T20:30:04.915Z,4.68
2023-04-18T20:32:32.938Z,7.47
2023-04-18T20:35:00.281Z,9.43
2023-04-18T20:37:28.083Z,8.60
2023-04-18T20:39:56.046Z,3.80
2023-04-18T20:42:23.894Z,5.75
2023-04-18T20:44:51.808Z,5.82
2023-04-18T20:47:19.012Z,7.55
2023-04-18T20:49:47.946Z,5.03
2023-04-18T20:52:15.759Z,3.75
2023-04-18T20:54:43.549Z,3.25
2023-04-18T20:57:11.302Z,4.03
2023-04-18T20:59:38.695Z,2.03
2023-04-18T21:02:08.492Z,5.70
2023-04-18T21:04:35.975Z,6.22
2023-04-18T21:07:04.689Z,3.55
2023-04-18T21:09:36.596Z,4.85
2023-04-18T21:12:05.703Z,2.08
2023-04-18T21:14:33.008Z,3.10
2023-04-18T21:17:01.014Z,3.92
2023-04-18T21:19:28.615Z,3.13
2023-04-18T21:21:59.869Z,3.05
2023-04-18T21:24:27.220Z,2.95
2023-04-18T21:26:59.673Z,2.83
2023-04-18T21:29:27.391Z,7.00
2023-04-18T21:31:55.539Z,4.97
2023-04-18T21:34:27.398Z,2.70
2023-04-18T21:36:59.172Z,3.03
2023-04-18T21:42:56.064Z,4.85
2023-04-18T21:45:24.418Z,9.93
2023-04-18T21:47:52.814Z,3.35
2023-04-18T21:50:20.633Z,9.70
2023-04-18T21:52:48.230Z,3.97
2023-04-18T21:55:16.240Z,4.93
2023-04-18T21:57:44.184Z,7.75
2023-04-18T22:00:13.444Z,4.07
2023-04-18T22:02:41.162Z,3.45
2023-04-18T22:05:09.417Z,3.85
2023-04-18T22:07:54.377Z,6.75
2023-04-18T22:10:25.551Z,12.98
2023-04-18T22:12:54.642Z,3.45
2023-04-18T22:15:22.407Z,6.65
2023-04-18T22:17:50.860Z,4.85
2023-04-18T22:20:18.964Z,6.88
2023-04-18T22:22:50.625Z,5.80
2023-04-18T22:25:18.998Z,4.95
2023-04-18T22:27:46.811Z,8.35
2023-04-18T22:30:14.880Z,2.28
2023-04-18T22:32:42.300Z,8.15
2023-04-18T22:35:10.092Z,5.55
2023-04-18T22:37:37.426Z,3.83
2023-04-18T22:40:08.897Z,5.50
2023-04-18T22:42:38.581Z,4.00
2023-04-18T22:45:07.976Z,3.90
2023-04-18T22:47:35.291Z,4.85
2023-04-18T22:50:05.049Z,3.92
2023-04-18T22:52:32.409Z,6.40
2023-04-18T22:54:59.540Z,2.85
2023-04-18T22:57:26.926Z,6.25
2023-04-18T22:59:54.221Z,4.63
2023-04-18T23:02:21.681Z,3.10
2023-04-18T23:04:50.006Z,6.88
2023-04-18T23:07:17.462Z,8.20
2023-04-18T23:09:44.636Z,7.95
2023-04-18T23:12:11.923Z,4.63
2023-04-18T23:14:39.261Z,4.05
2023-04-18T23:17:06.713Z,4.05
2023-04-18T23:19:34.216Z,4.63
2023-04-18T23:22:01.423Z,3.20
2023-04-18T23:24:30.447Z,9.80
2023-04-18T23:26:58.652Z,5.20
2023-04-18T23:29:26.117Z,7.00
2023-04-18T23:31:53.485Z,5.22
2023-04-18T23:34:20.941Z,3.15
2023-04-18T23:36:48.341Z,3.38
2023-04-18T23:39:18.203Z,3.63
2023-04-18T23:41:46.364Z,8.88
2023-04-18T23:44:14.253Z,5.88
2023-04-18T23:46:41.872Z,4.53
2023-04-18T23:49:09.286Z,4.35
2023-04-18T23:51:36.614Z,7.95
2023-04-18T23:54:04.173Z,4.20
2023-04-18T23:56:31.807Z,4.10
2023-04-18T23:58:59.237Z,15.00
